• Join FlightAware (Why Join?)
  • Login
  • US Flag 
02:31AM EDT


 

Airport Tracker/Info


-or-


 

Live Flight TrackerFlight Track Log ✈ N307TS ✈ 04-Nov-2013 ✈ KRAP - KBIL

Flight Track Log - Related Links

Times and Time Zones

All times are in EST time to prevent confusion due to time zone crossing. See the N307TS flight status page for this flight to view local times or setup timezone preferences in your user account.

Time Position Orientation Groundspeed Altitude Reporting Facility
EST Latitude Longitude Course Direction KTS MPH feet Rate Location/Type
11:17AM 44.0836 -103.1133 307° West 173 199 5,200  Level Denver Center
11:18AM 44.1056 -103.1750 296° West 168 193 7,000 1,680 Climbing Denver Center
11:19AM 44.1239 -103.2289 295° West 161 185 8,600 1,560 Climbing Denver Center
11:20AM 44.1453 -103.2878 297° West 163 188 10,200 1,560 Climbing Denver Center
11:21AM 44.1669 -103.3497 296° West 168 193 11,800 1,440 Climbing Denver Center
11:22AM 44.1861 -103.4094 294° West 176 203 13,200 1,080 Climbing Denver Center
11:24AM 44.2061 -103.4842 290° West 181 208 14,400 1,560 Climbing Denver Center
11:25AM 44.2319 -103.5494 299° West 180 207 17,000 1,920 Climbing Denver Center
11:26AM 44.2528 -103.6108 295° West 173 199 18,400 1,560 Climbing Denver Center
11:27AM 44.2764 -103.6858 294° West 176 203 20,300 1,560 Climbing Denver Center
11:28AM 44.2994 -103.7494 297° West 178 205 21,700 1,440 Climbing Denver Center
11:29AM 44.3200 -103.8117 295° West 178 205 23,300 1,080 Climbing Denver Center
11:30AM 44.3428 -103.8717 298° West 177 204 24,000 300 Climbing Denver Center
11:31AM 44.3617 -103.9353 293° West 178 205 24,000  Level Denver Center
11:32AM 44.3822 -104.0089 291° West 190 219 24,000  Level Denver Center
11:33AM 44.4144 -104.0992 297° West 203 234 24,000  Level Denver Center
11:34AM 44.4472 -104.1789 300° West 214 246 24,000  Level Denver Center
11:35AM 44.4744 -104.2558 296° West 219 252 24,000  Level Denver Center
11:36AM 44.5003 -104.3347 295° West 222 255 24,000  Level Denver Center
11:37AM 44.5264 -104.4150 295° West 225 259 24,000  Level Denver Center
11:38AM 44.5542 -104.4975 295° West 229 264 24,000  Level Denver Center
11:39AM 44.5869 -104.5953 295° West 231 266 24,000  Level Denver Center
11:40AM 44.6144 -104.6781 295° West 232 267 24,000  Level Denver Center
11:41AM 44.6425 -104.7622 295° West 236 272 24,000  Level Denver Center
11:42AM 44.6719 -104.8467 296° West 238 274 24,000  Level Denver Center
11:43AM 44.6992 -104.9314 294° West 239 275 24,000  Level Denver Center
11:44AM 44.7267 -105.0167 294° West 239 275 24,000  Level Denver Center
11:46AM 44.7567 -105.1150 293° West 237 273 24,000  Level Salt Lake Center
11:47AM 44.7856 -105.1986 296° West 237 273 24,000  Level Salt Lake Center
11:47AM 44.8147 -105.2861 295° West 239 275 24,000  Level Denver Center
11:49AM 44.8428 -105.3708 295° West 239 275 24,000  Level Denver Center
11:50AM 44.8758 -105.4725 295° West 241 277 24,000  Level Salt Lake Center
11:51AM 44.9033 -105.5586 294° West 242 278 24,000  Level Salt Lake Center
11:53AM 44.9597 -105.7297 295° West 240 276 24,000  Level Denver Center
11:54AM 44.9914 -105.8297 294° West 237 273 24,000  Level Salt Lake Center
11:55AM 45.0183 -105.9144 294° West 237 273 24,000  Level Salt Lake Center
11:56AM 45.0450 -105.9997 294° West 237 273 24,000  Level Salt Lake Center
11:57AM 45.0711 -106.0858 293° West 238 274 24,000  Level Salt Lake Center
11:58AM 45.0981 -106.1714 294° West 239 275 24,000  Level Salt Lake Center
11:59AM 45.1256 -106.2561 295° West 238 274 24,000  Level Salt Lake Center
12:00PM 45.1528 -106.3422 294° West 239 275 24,000  Level Salt Lake Center
12:01PM 45.1844 -106.4444 294° West 239 275 24,000  Level Salt Lake Center
12:02PM 45.2108 -106.5303 294° West 238 274 24,000  Level Salt Lake Center
12:03PM 45.2375 -106.6164 294° West 239 275 24,000  Level Salt Lake Center
12:04PM 45.2636 -106.7031 293° West 239 275 24,000  Level Salt Lake Center
12:05PM 45.2900 -106.7886 294° West 239 275 24,000  Level Salt Lake Center
12:06PM 45.3167 -106.8744 294° West 238 274 24,000 -180 Level Salt Lake Center
12:07PM 45.3425 -106.9589 294° West 237 273 23,700 -540 Descending Salt Lake Center
12:09PM 45.3645 -107.0721 297° West  Level FlightAware Approximate
12:09PM 45.3994 -107.1450 297° West 235 270 22,400  Level Salt Lake Center
12:10PM 45.4250 -107.2311 293° West 235 270 21,700 -720 Descending Salt Lake Center
12:11PM 45.4503 -107.3153 293° West 234 269 21,000 -780 Descending Salt Lake Center
12:12PM 45.4750 -107.3997 293° West 232 267 20,200 -1,020 Descending Salt Lake Center
12:13PM 45.5006 -107.4858 293° West 236 272 19,000 -1,320 Descending Salt Lake Center
12:14PM 45.5192 -107.5969 283° West 243 280 17,500 -1,320 Descending Salt Lake Center
12:15PM 45.5308 -107.6933 280° West 248 285 16,300 -1,260 Descending Salt Lake Center
12:16PM 45.5431 -107.8000 279° West 255 293 15,000 -1,260 Descending Salt Lake Center
12:17PM 45.5569 -107.8964 282° West 252 290 13,800 -1,200 Descending Salt Lake Center
12:18PM 45.5739 -107.9983 283° West 247 284 12,600 -1,140 Descending Salt Lake Center
12:20PM 45.6014 -108.0844 295° West 242 278 11,500 -1,140 Descending Salt Lake Center
12:21PM 45.6297 -108.1767 294° West 238 274 10,300 -960 Descending Salt Lake Center
12:22PM 45.6550 -108.2600 293° West 232 267 9,600 -780 Descending Salt Lake Center
12:23PM 45.6769 -108.3456 290° West 230 265 8,800 -840 Descending Salt Lake Center
12:24PM 45.6961 -108.4378 287° West 229 264 8,000 -420 Descending Salt Lake Center
12:25PM 45.7150 -108.5161 289° West 212 244 8,000  Level Salt Lake Center
12:26PM 45.7322 -108.5989 287° West 202 232 8,000 -540 Level Salt Lake Center
12:27PM 45.7475 -108.6767 286° West 204 235 6,900 -1,020 Descending Salt Lake Center
12:28PM 45.7592 -108.7569 282° West 206 237 6,000 -480 Descending Salt Lake Center
12:29PM 45.7722 -108.8353 283° West 192 221 6,000  Level Salt Lake Center
12:30PM 45.8167 -108.8481 349° North 188 216 6,000  Level Salt Lake Center
12:31PM 45.8589 -108.8142 29° Northeast 173 199 6,000 -180 Level Salt Lake Center
12:32PM 45.8603 -108.7433 88° East 180 207 5,700 -300 Descending Salt Lake Center
12:33PM 45.8481 -108.6825 106° East 151 174 5,500 -480 Descending Salt Lake Center
12:34PM 45.8342 -108.6322 112° Southeast 140 161 4,800 -720 Descending Salt Lake Center
12:35PM 45.8222 -108.5878 111° Southeast 115 132 4,100 -600 Descending Salt Lake Center
12:36PM 45.8103 -108.5497 114° Southeast 109 125 3,600 -540 Descending Salt Lake Center